Track Калинин Матвей

Time Latitude Longitude Accuracy (66% radius in meters) Altitude (meters) Speed (km/hour) Bearing (degrees) Battery (%) GPS flag
09:48:29 55.737896 37.299021 5 172 0 107.87591552734 65 1 delete
09:48:17 55.737904 37.299015 10 178 0 24.744922637939 65 1 delete
09:48:06 55.737904 37.299015 5 175 0 24.744922637939 65 1 delete
09:47:54 55.737903 37.299015 5 173 0 24.744922637939 65 1 delete
09:47:42 55.737904 37.299017 10 177 0 24.744922637939 65 1 delete
09:47:31 55.737904 37.299017 5 173 0 24.744922637939 65 1 delete
09:47:19 55.737904 37.299017 5 175 0 24.744922637939 65 1 delete
09:47:07 55.737904 37.299017 10 175 0 24.744922637939 65 1 delete
09:46:56 55.737904 37.299017 5 172 0 24.744922637939 65 1 delete
09:46:45 55.737904 37.299019 5 175 0 24.744922637939 68 1 delete
09:46:33 55.737904 37.299019 5 183 0 24.744922637939 68 1 delete
09:46:22 55.737900 37.299017 5 176 0 309.05352783203 68 1 delete
09:46:09 55.737900 37.299017 5 175 0 309.05352783203 68 1 delete
09:45:57 55.737894 37.299021 5 179 0 319.40832519531 68 1 delete
09:45:45 55.737884 37.299028 5 176 0 341.20199584961 68 1 delete
09:45:32 55.737878 37.299028 5 177 0 169.38346862793 68 1 delete
09:45:20 55.737878 37.299028 5 175 0 169.38346862793 68 1 delete
09:45:09 55.737878 37.299028 5 175 0 169.38346862793 68 1 delete
09:44:57 55.737878 37.299028 5 174 0 169.38346862793 68 1 delete
09:44:45 55.737878 37.299028 5 175 0 169.38346862793 68 1 delete
09:44:34 55.737878 37.299028 5 174 0 169.38346862793 68 1 delete
09:44:22 55.737878 37.299028 5 174 0 169.38346862793 68 1 delete
09:44:10 55.737878 37.299028 5 173 0 169.38346862793 68 1 delete
09:43:59 55.737878 37.299028 5 172 0 169.38346862793 68 1 delete
09:43:47 55.737878 37.299028 5 177 0 169.38346862793 68 1 delete
09:43:36 55.737878 37.299028 5 174 0 169.38346862793 68 1 delete
09:43:24 55.737878 37.299028 5 175 0 169.38346862793 68 1 delete
09:43:12 55.737883 37.299028 5 176 0 170.77517700195 68 1 delete
09:43:01 55.737882 37.299032 5 175 0 170.77517700195 68 1 delete
09:42:49 55.737882 37.299032 5 176 0 170.77517700195 68 1 delete
09:42:38 55.737882 37.299032 5 173 0 170.77517700195 68 1 delete
09:42:26 55.737882 37.299032 5 178 0 170.77517700195 68 1 delete
09:42:14 55.737882 37.299032 5 180 0 170.77517700195 68 1 delete
09:42:03 55.737885 37.299033 5 179 0 170.77517700195 68 1 delete
09:41:51 55.737885 37.299033 5 178 0 170.77517700195 68 1 delete
09:41:39 55.737885 37.299033 5 175 0 170.77517700195 68 1 delete
09:41:28 55.737885 37.299033 5 174 0 170.77517700195 68 1 delete
09:41:16 55.737885 37.299033 5 175 0 170.77517700195 68 1 delete
09:41:05 55.737885 37.299033 5 176 0 170.77517700195 68 1 delete
09:40:53 55.737885 37.299033 5 174 0 170.77517700195 68 1 delete
09:40:41 55.737885 37.299033 5 177 0 170.77517700195 68 1 delete
09:40:30 55.737885 37.299033 5 175 0 170.77517700195 68 1 delete
09:40:26 55.737885 37.299033 5 173 0.33953526616096 170.77517700195 68 1 delete
09:40:18 55.737889 37.299034 10 176 0 179.18389892578 68 1 delete
09:40:06 55.737889 37.299034 5 172 0 179.18389892578 68 1 delete
09:39:55 55.737889 37.299034 5 175 0 179.18389892578 68 1 delete
09:39:43 55.737889 37.299034 5 174 0 179.18389892578 68 1 delete
09:39:31 55.737889 37.299034 5 173 0 179.18389892578 68 1 delete
09:39:20 55.737910 37.299084 5 176 0.40139111876488 173.82838439941 68 1 delete
09:39:08 55.737914 37.299085 5 179 0 167.07676696777 68 1 delete